AirNav   Advertisement
 
 937 users online  

8GA8 Falcons Aerie Airport
Carrollton, Georgia, USA

GOING TO CARROLLTON?


FAA INFORMATION EFFECTIVE 14 SEPTEMBER 2017

Location

FAA Identifier: 8GA8
Lat/Long: 33-34-38.3980N / 085-00-10.7930W
33-34.639967N / 085-00.179883W
33.5773328 / -85.0029981
(estimated)
Elevation: 1180 ft. / 360 m (estimated)
Variation: 02W (1990)
From city: 5 miles E of CARROLLTON, GA
Time zone: UTC -4 (UTC -5 during Standard Time)
Zip code: 30116

Airport Operations

Airport use: Private use. Permission required prior to landing
Activation date: 03/1992
Control tower: no
ARTCC: ATLANTA CENTER
FSS: MACON FLIGHT SERVICE STATION
Attendance: IREG
Wind indicator: yes
Segmented circle: no

Airport Communications

WX AWOS-3 at CTJ (8 nm NW): 118.175 (770-214-9667)
WX AWOS-3PT at CCO (20 nm SE): 118.975 (770-254-1617)

Nearby radio navigation aids

VOR radial/distance  VOR name  Freq  Var
ATLr269/28.6ATLANTA VORTAC116.9005W
LGCr017/33.3LAGRANGE VORTAC115.6001E
RMGr170/35.6ROME VORTAC115.4001E
PDKr248/39.4PEACHTREE VOR/DME116.6005W

 
NDB name  Hdg/Dist  Freq  Var  ID
CARROLLTON088/6.427804WGPQ --. .--. --.-
COWETA COUNTY326/24.123403WEQQ . --.- --.-
PECAT308/30.731605WFFC ..-. ..-. -.-.
CARTERSVILLE196/38.230804WEVZ . ...- --..

Airport Services

Runway Information

Runway 17/35

Dimensions: 2000 x 60 ft. / 610 x 18 m
Surface: turf
RUNWAY 17  RUNWAY 35
Traffic pattern: leftleft

Airport Ownership and Management from official FAA records

Ownership: Privately-owned
Owner: BART STONE
1451 HORSLEY MILL RD
CARROLLTON, GA 30117
Phone (770) 617-4566

Airport Operational Statistics

Aircraft based on the field: 1
Single engine airplanes: 1
    

Instrument Procedures

There are no published instrument procedures at 8GA8.

Some nearby airports with instrument procedures:

KCTJ - West Georgia Regional Airport-O V Gray Field (8 nm NW)
KCCO - Newnan Coweta County Airport (20 nm SE)
KPUJ - Paulding Northwest Atlanta Airport (20 nm N)
KFFC - Atlanta Regional Airport-Falcon Field (25 nm SE)
KFTY - Fulton County Airport-Brown Field (27 nm NE)
 
Loc | Ops | Rwys | IFR | FBO | Links
Com | Nav | Svcs | Stats | Notes


 
Area around 8GA8 (Falcons Aerie Airport)
 
Road maps at: MapQuest Bing Google
 
Aerial photo
No photo
 
Sectional chart

 
Airport distance calculator
Flying to Falcons Aerie Airport? Find the distance to fly.

From to 8GA8

Sunrise and sunset
Times for 23-Sep-2017
 Local
(UTC-4)
 Zulu
(UTC)
Morning civil twilight07:0511:05
Sunrise07:3011:30
Sunset19:3523:35
Evening civil twilight20:0024:00

Current date and time
Zulu (UTC)  23-Sep-2017 19:55:54
Local (UTC-4)  23-Sep-2017 15:55:54
 
METAR
KCTJ 
8nm NW 
231935Z AUTO 11004KT 10SM SCT050 SCT065 SCT080 29/18 A3008 RMK AO2 T02940181
KCCO 
20nm SE 
231935Z AUTO 10005KT 10SM SCT050 30/20 A3003 RMK AO2 T03030195
TAF
KFTY 
27nm NE 
231740Z 2318/2418 07006KT P6SM VCSH SCT050 FM240100 00000KT P6SM SCT250 TEMPO 2409/2412 5SM BR FM241600 08010KT P6SM SCT040
KATL 
28nm E 
231740Z 2318/2424 08007KT P6SM VCSH SCT050 FM240100 08005KT P6SM SCT250 FM241600 08011KT P6SM SCT040
KMGE 
32nm NE 
231300Z 2313/2419 05005KT 9999 FEW070 FEW250 QNH3003INS BECMG 2317/2318 07009KT 9999 FEW050 QNH2999INS BECMG 2322/2323 06005KT 9999 FEW050 QNH2997INS BECMG 2414/2415 07009KT 9999 FEW040 SCT150 QNH3005INS TX31/2321Z TN18/2412Z
KRYY 
33nm NE 
231740Z 2318/2418 07006KT P6SM VCSH SCT050 FM240100 00000KT P6SM SCT250 FM241600 08010KT P6SM SCT040
NOTAMs
Click for the latest NOTAMs
NOTAMs are issued by the DoD/FAA and will open in a separate window not controlled by AirNav.

 

 
 

Would you like to see your business listed on this page?

 If your business provides an interesting product or service to pilots, flight crews, aircraft, or users of the Falcons Aerie Airport, you should consider listing it here.  To start the listing process, click on the button below
 
Add a business
 

Other Pages about Falcons Aerie Airport

Update a link
 
Copyright © AirNav, LLC. All rights reserved. Privacy Policy  Contact